createdAt,value
2023-12-13T00:00:18.606Z,1.50
2023-12-13T00:02:52.200Z,1.50
2023-12-13T00:05:25.846Z,1.50
2023-12-13T00:07:59.593Z,1.50
2023-12-13T00:10:33.227Z,1.50
2023-12-13T00:13:08.251Z,1.50
2023-12-13T00:15:42.391Z,1.50
2023-12-13T00:18:16.046Z,1.60
2023-12-13T00:20:49.788Z,1.60
2023-12-13T00:23:23.927Z,1.60
2023-12-13T00:25:57.600Z,1.60
2023-12-13T00:28:32.600Z,1.60
2023-12-13T00:31:06.832Z,1.60
2023-12-13T00:33:40.736Z,1.60
2023-12-13T00:36:14.418Z,1.60
2023-12-13T00:38:47.936Z,1.60
2023-12-13T00:41:23.047Z,1.60
2023-12-13T00:43:58.219Z,1.60
2023-12-13T00:46:31.877Z,1.60
2023-12-13T00:49:05.523Z,1.60
2023-12-13T00:51:39.115Z,1.60
2023-12-13T00:54:12.664Z,1.60
2023-12-13T00:56:46.311Z,1.60
2023-12-13T00:59:21.366Z,1.60
2023-12-13T01:01:54.943Z,1.60
2023-12-13T01:04:28.578Z,1.60
2023-12-13T01:07:02.270Z,1.60
2023-12-13T01:09:35.887Z,1.60
2023-12-13T01:12:11.047Z,1.60
2023-12-13T01:14:45.987Z,1.60
2023-12-13T01:17:19.849Z,1.60
2023-12-13T01:19:54.172Z,1.60
2023-12-13T01:22:27.796Z,1.60
2023-12-13T01:25:01.368Z,1.60
2023-12-13T01:27:35.223Z,1.60
2023-12-13T01:30:10.915Z,1.50
2023-12-13T01:32:44.548Z,1.50
2023-12-13T01:35:18.267Z,1.50
2023-12-13T01:37:52.160Z,1.50
2023-12-13T01:40:25.819Z,1.50
2023-12-13T01:42:59.346Z,1.50
2023-12-13T01:45:34.367Z,1.40
2023-12-13T01:48:08.000Z,1.50
2023-12-13T01:50:41.932Z,1.50
2023-12-13T01:53:15.715Z,1.50
2023-12-13T01:55:49.845Z,1.50
2023-12-13T01:58:24.458Z,1.50
2023-12-13T02:01:00.394Z,1.50
2023-12-13T02:03:34.799Z,1.40
2023-12-13T02:06:10.217Z,1.40
2023-12-13T02:08:43.770Z,1.40
2023-12-13T02:11:17.511Z,1.40
2023-12-13T02:13:51.388Z,1.40
2023-12-13T02:16:27.878Z,1.50
2023-12-13T02:19:01.752Z,1.50
2023-12-13T02:21:35.400Z,1.50
2023-12-13T02:24:10.955Z,1.50
2023-12-13T02:26:46.269Z,1.50
2023-12-13T02:29:20.841Z,1.50
2023-12-13T02:31:54.644Z,1.50
2023-12-13T02:34:28.286Z,1.50
2023-12-13T02:37:03.552Z,1.50
2023-12-13T02:39:38.560Z,1.40
2023-12-13T02:42:12.071Z,1.40
2023-12-13T02:44:45.639Z,1.40
2023-12-13T02:47:19.981Z,1.50
2023-12-13T02:49:53.992Z,1.40
2023-12-13T02:52:27.634Z,1.40
2023-12-13T02:55:02.581Z,1.50
2023-12-13T02:57:36.235Z,1.50
2023-12-13T03:00:10.662Z,1.50
2023-12-13T03:02:44.778Z,1.50
2023-12-13T03:05:18.490Z,1.50
2023-12-13T03:07:52.145Z,1.60
2023-12-13T03:10:29.272Z,1.60
2023-12-13T03:13:03.048Z,1.60
2023-12-13T03:15:37.336Z,1.60
2023-12-13T03:18:11.208Z,1.60
2023-12-13T03:20:44.888Z,1.70
2023-12-13T03:23:18.443Z,1.70
2023-12-13T03:25:53.463Z,1.70
2023-12-13T03:28:27.099Z,1.80
2023-12-13T03:31:00.642Z,1.80
2023-12-13T03:33:34.235Z,1.80
2023-12-13T03:36:15.600Z,1.80
2023-12-13T03:38:49.298Z,1.80
2023-12-13T03:41:24.979Z,1.80
2023-12-13T03:43:59.467Z,1.80
2023-12-13T03:46:33.715Z,1.80
2023-12-13T03:49:07.448Z,1.80
2023-12-13T03:51:44.701Z,1.90
2023-12-13T03:54:18.753Z,1.90
2023-12-13T03:56:53.803Z,1.90
2023-12-13T03:59:27.455Z,1.90
2023-12-13T04:02:01.454Z,1.90
2023-12-13T04:04:35.180Z,2.00
2023-12-13T04:07:09.593Z,1.90
2023-12-13T04:09:43.240Z,1.90
2023-12-13T04:12:18.363Z,1.90
2023-12-13T04:14:51.923Z,1.90
2023-12-13T04:17:25.540Z,2.00
2023-12-13T04:19:59.806Z,2.00
2023-12-13T04:22:33.480Z,2.00
2023-12-13T04:25:07.678Z,2.00
2023-12-13T04:27:44.891Z,2.00
2023-12-13T04:30:18.702Z,2.10
2023-12-13T04:32:52.393Z,2.00
2023-12-13T04:35:26.095Z,2.10
2023-12-13T04:37:59.836Z,2.10
2023-12-13T04:40:33.814Z,2.10
2023-12-13T04:43:09.213Z,2.10
2023-12-13T04:45:42.850Z,2.10
2023-12-13T04:48:16.582Z,2.10
2023-12-13T04:50:51.926Z,2.00
2023-12-13T04:53:27.207Z,2.00
2023-12-13T04:56:02.317Z,2.00
2023-12-13T04:58:39.349Z,2.00
2023-12-13T05:01:14.556Z,2.00
2023-12-13T05:03:48.475Z,2.10
2023-12-13T05:06:22.069Z,2.00
2023-12-13T05:08:55.839Z,2.00
2023-12-13T05:11:29.362Z,2.10
2023-12-13T05:14:04.714Z,2.10
2023-12-13T05:16:38.377Z,2.10
2023-12-13T05:19:12.101Z,2.10
2023-12-13T05:21:45.750Z,2.10
2023-12-13T05:24:19.383Z,2.20
2023-12-13T05:26:52.951Z,2.20
2023-12-13T05:29:27.919Z,2.20
2023-12-13T05:32:01.569Z,2.20
2023-12-13T05:34:35.259Z,2.20
2023-12-13T05:37:08.821Z,2.20
2023-12-13T05:40:01.010Z,2.20
2023-12-13T05:42:34.676Z,2.20
2023-12-13T05:45:10.687Z,2.20
2023-12-13T05:47:44.450Z,2.20
2023-12-13T05:50:18.338Z,2.20
2023-12-13T05:52:52.128Z,2.20
2023-12-13T05:55:25.736Z,2.20
2023-12-13T05:57:59.326Z,2.20
2023-12-13T06:00:36.106Z,2.20
2023-12-13T06:03:10.526Z,2.20
2023-12-13T06:05:44.490Z,2.10
2023-12-13T06:08:18.121Z,2.10
2023-12-13T06:10:51.683Z,2.10
2023-12-13T06:13:25.449Z,2.20
2023-12-13T06:16:00.739Z,2.20
2023-12-13T06:18:34.525Z,2.20
2023-12-13T06:21:09.239Z,2.20
2023-12-13T06:23:43.073Z,2.20
2023-12-13T06:26:16.687Z,2.20
2023-12-13T06:28:50.363Z,2.20
2023-12-13T06:31:25.698Z,2.20
2023-12-13T06:33:59.386Z,2.20
2023-12-13T06:36:33.058Z,2.20
2023-12-13T06:39:08.753Z,2.20
2023-12-13T06:41:42.526Z,2.20
2023-12-13T06:44:16.651Z,2.20
2023-12-13T06:46:51.895Z,2.30
2023-12-13T06:49:29.397Z,2.20
2023-12-13T06:52:03.812Z,2.20
2023-12-13T06:54:37.378Z,2.20
2023-12-13T06:57:11.069Z,2.20
2023-12-13T06:59:44.791Z,2.20
2023-12-13T07:02:20.465Z,2.10
2023-12-13T07:04:54.139Z,2.10
2023-12-13T07:07:27.941Z,2.10
2023-12-13T07:10:01.628Z,2.10
2023-12-13T07:12:35.332Z,2.10
2023-12-13T07:15:12.140Z,2.10
2023-12-13T07:17:47.378Z,2.20
2023-12-13T07:20:22.908Z,2.10
2023-12-13T07:22:56.584Z,2.10
2023-12-13T07:25:30.234Z,2.10
2023-12-13T07:28:04.500Z,2.10
2023-12-13T07:30:40.808Z,2.10
2023-12-13T07:33:18.401Z,2.10
2023-12-13T07:35:53.059Z,2.10
2023-12-13T07:38:26.887Z,2.20
2023-12-13T07:41:00.570Z,2.20
2023-12-13T07:43:34.730Z,2.20
2023-12-13T07:46:12.092Z,2.20
2023-12-13T07:48:47.288Z,2.20
2023-12-13T07:51:20.949Z,2.20
2023-12-13T07:53:54.513Z,2.20
2023-12-13T07:56:30.645Z,2.20
2023-12-13T07:59:06.234Z,2.30
2023-12-13T08:01:40.047Z,2.30
2023-12-13T08:04:15.391Z,2.30
2023-12-13T08:06:49.078Z,2.30
2023-12-13T08:09:22.767Z,2.30
2023-12-13T08:11:56.421Z,2.30
2023-12-13T08:14:32.179Z,2.40
2023-12-13T08:17:10.165Z,2.40
2023-12-13T08:19:45.191Z,2.40
2023-12-13T08:22:18.836Z,2.40
2023-12-13T08:24:52.623Z,2.40
2023-12-13T08:27:26.237Z,2.40
2023-12-13T08:29:59.763Z,2.50
2023-12-13T08:32:33.413Z,2.50
2023-12-13T08:35:09.693Z,2.50
2023-12-13T08:37:43.473Z,2.50
2023-12-13T08:40:17.550Z,2.50
2023-12-13T08:42:51.489Z,2.50
2023-12-13T08:45:25.371Z,2.60
2023-12-13T08:47:59.038Z,2.60
2023-12-13T08:50:34.009Z,2.70
2023-12-13T08:53:07.671Z,2.70
2023-12-13T08:55:41.709Z,2.70
2023-12-13T08:58:15.454Z,2.80
2023-12-13T09:00:49.743Z,2.80
2023-12-13T09:03:23.572Z,2.70
2023-12-13T09:05:58.915Z,2.70
2023-12-13T09:08:32.705Z,2.80
2023-12-13T09:11:06.916Z,2.80
2023-12-13T09:13:41.323Z,2.80
2023-12-13T09:16:15.201Z,2.90
2023-12-13T09:18:50.498Z,2.90
2023-12-13T09:21:25.596Z,2.90
2023-12-13T09:24:00.633Z,3.00
2023-12-13T09:26:34.481Z,3.00
2023-12-13T09:29:09.361Z,3.00
2023-12-13T09:31:43.300Z,3.00
2023-12-13T09:34:17.661Z,3.00
2023-12-13T09:36:52.638Z,3.00
2023-12-13T09:39:27.293Z,3.00
2023-12-13T09:42:04.193Z,3.00
2023-12-13T09:44:40.532Z,3.00
2023-12-13T09:47:17.915Z,3.00
2023-12-13T09:49:53.468Z,3.00
2023-12-13T09:52:30.865Z,3.00
2023-12-13T09:55:08.036Z,3.00
2023-12-13T09:57:41.908Z,3.00
2023-12-13T10:00:16.284Z,3.00
2023-12-13T10:02:49.900Z,3.00
2023-12-13T10:05:28.748Z,3.00
2023-12-13T10:08:04.994Z,3.00
2023-12-13T10:10:38.739Z,3.00
2023-12-13T10:13:12.412Z,3.00
2023-12-13T10:15:46.147Z,3.00
2023-12-13T10:18:19.851Z,3.10
2023-12-13T10:20:53.591Z,3.10
2023-12-13T10:23:29.930Z,3.10
2023-12-13T10:26:03.767Z,3.00
2023-12-13T10:28:38.333Z,3.00
2023-12-13T10:31:13.272Z,3.00
2023-12-13T10:33:47.052Z,3.10
2023-12-13T10:36:23.012Z,3.10
2023-12-13T10:38:58.841Z,3.10
2023-12-13T10:41:33.835Z,3.20
2023-12-13T10:44:09.273Z,3.20
2023-12-13T10:46:47.751Z,3.20
2023-12-13T10:49:23.060Z,3.30
2023-12-13T10:51:58.327Z,3.30
2023-12-13T10:54:34.163Z,3.40
2023-12-13T10:57:07.830Z,3.40
2023-12-13T10:59:42.987Z,3.40
2023-12-13T11:02:19.489Z,3.50
2023-12-13T11:04:53.406Z,3.50
2023-12-13T11:07:27.099Z,3.50
2023-12-13T11:10:03.465Z,3.60
2023-12-13T11:12:47.687Z,3.60
2023-12-13T11:15:22.168Z,3.60
2023-12-13T11:18:00.465Z,3.60
2023-12-13T11:20:34.700Z,3.60
2023-12-13T11:23:10.560Z,3.60
2023-12-13T11:25:50.418Z,3.70
2023-12-13T11:28:27.485Z,3.70
2023-12-13T11:31:02.549Z,3.70
2023-12-13T11:33:37.316Z,3.70
2023-12-13T11:36:12.806Z,3.80
2023-12-13T11:38:46.576Z,3.80
2023-12-13T11:41:21.652Z,3.80
2023-12-13T11:43:55.366Z,3.90
2023-12-13T11:46:30.685Z,3.90
2023-12-13T11:49:04.315Z,3.90
2023-12-13T11:51:38.045Z,3.90
2023-12-13T11:54:11.981Z,3.90
2023-12-13T11:56:47.388Z,3.90
2023-12-13T11:59:22.035Z,3.90
2023-12-13T12:01:55.800Z,3.80
2023-12-13T12:04:30.397Z,3.80
2023-12-13T12:07:06.632Z,3.80
2023-12-13T12:09:40.284Z,3.80
2023-12-13T12:12:16.341Z,3.80
2023-12-13T12:15:23.223Z,3.80
2023-12-13T12:17:57.185Z,3.80
2023-12-13T12:20:30.877Z,3.80
2023-12-13T12:23:05.022Z,3.90
2023-12-13T12:27:11.322Z,3.90
2023-12-13T12:29:45.109Z,3.90
2023-12-13T12:32:18.785Z,3.90
2023-12-13T12:34:52.547Z,3.90
2023-12-13T12:37:27.191Z,3.80
2023-12-13T12:40:00.909Z,3.80
2023-12-13T12:42:36.846Z,3.80
2023-12-13T12:45:11.085Z,3.80
2023-12-13T12:47:44.926Z,3.70
2023-12-13T12:50:21.667Z,3.80
2023-12-13T12:52:55.765Z,3.80
2023-12-13T12:55:29.476Z,3.80
2023-12-13T12:58:05.357Z,3.80
2023-12-13T13:00:38.982Z,3.80
2023-12-13T13:03:12.800Z,3.80
2023-12-13T13:05:46.839Z,3.80
2023-12-13T13:08:20.633Z,3.80
2023-12-13T13:10:55.329Z,3.70
2023-12-13T13:13:31.708Z,3.70
2023-12-13T13:16:06.336Z,3.70
2023-12-13T13:18:40.088Z,3.60
2023-12-13T13:21:13.657Z,3.60
2023-12-13T13:23:47.303Z,3.40
2023-12-13T13:26:21.635Z,3.30
2023-12-13T13:28:57.458Z,3.30
2023-12-13T13:31:31.589Z,3.30
2023-12-13T13:34:05.487Z,3.30
2023-12-13T13:36:39.157Z,3.30
2023-12-13T13:39:14.609Z,3.30
2023-12-13T13:41:48.332Z,3.30
2023-12-13T13:44:23.429Z,3.30
2023-12-13T13:46:57.529Z,3.30
2023-12-13T13:49:31.322Z,3.30
2023-12-13T13:52:05.338Z,3.30
2023-12-13T13:54:39.276Z,3.30
2023-12-13T13:57:13.129Z,3.30
2023-12-13T13:59:48.205Z,3.20
2023-12-13T14:02:32.755Z,3.20
2023-12-13T14:05:06.922Z,3.10
2023-12-13T14:07:40.841Z,3.10
2023-12-13T14:10:15.672Z,3.10
2023-12-13T14:12:49.919Z,3.10
2023-12-13T14:15:25.507Z,3.10
2023-12-13T14:17:59.428Z,3.10
2023-12-13T14:20:33.890Z,3.10
2023-12-13T14:23:07.884Z,3.10
2023-12-13T14:25:41.466Z,3.00
2023-12-13T14:28:15.096Z,3.00
2023-12-13T14:30:50.168Z,3.00
2023-12-13T14:33:23.910Z,3.00
2023-12-13T14:35:58.195Z,3.00
2023-12-13T14:38:32.861Z,3.00
2023-12-13T14:41:07.062Z,3.00
2023-12-13T14:43:41.692Z,3.00
2023-12-13T14:46:16.773Z,3.00
2023-12-13T14:48:52.165Z,3.00
2023-12-13T14:51:27.278Z,2.90
2023-12-13T14:54:01.286Z,2.90
2023-12-13T14:56:37.352Z,2.90
2023-12-13T14:59:11.647Z,2.80
2023-12-13T15:01:49.961Z,2.80
2023-12-13T15:04:23.747Z,2.80
2023-12-13T15:06:57.478Z,2.80
2023-12-13T15:09:31.270Z,2.80
2023-12-13T15:12:08.220Z,2.80
2023-12-13T15:14:42.502Z,2.80
2023-12-13T15:17:17.568Z,2.80
2023-12-13T15:19:51.335Z,2.80
2023-12-13T15:22:28.179Z,2.70
2023-12-13T15:25:06.731Z,2.70
2023-12-13T15:27:44.315Z,2.70
2023-12-13T15:30:18.045Z,2.70
2023-12-13T15:32:53.170Z,2.70
2023-12-13T15:35:26.791Z,2.70
2023-12-13T15:38:00.386Z,2.80
2023-12-13T15:40:34.065Z,2.70
2023-12-13T15:43:09.073Z,2.70
2023-12-13T15:45:42.990Z,2.70
2023-12-13T15:48:18.081Z,2.70
2023-12-13T15:50:52.022Z,2.70
2023-12-13T15:53:25.884Z,2.60
2023-12-13T15:55:59.721Z,2.60
2023-12-13T15:58:33.540Z,2.60
2023-12-13T16:01:07.371Z,2.60
2023-12-13T16:03:42.435Z,2.70
2023-12-13T16:06:16.491Z,2.70
2023-12-13T16:08:50.068Z,2.70
2023-12-13T16:11:23.679Z,2.70
2023-12-13T16:13:57.487Z,2.70
2023-12-13T16:16:31.211Z,2.70
2023-12-13T16:19:07.316Z,2.70
2023-12-13T16:21:40.987Z,2.70
2023-12-13T16:24:14.682Z,2.70
2023-12-13T16:26:50.265Z,2.70
2023-12-13T16:29:30.217Z,2.70
2023-12-13T16:32:05.415Z,2.70
2023-12-13T16:34:40.628Z,2.70
2023-12-13T16:37:14.199Z,2.60
2023-12-13T16:39:47.783Z,2.60
2023-12-13T16:42:22.697Z,2.50
2023-12-13T16:44:56.334Z,2.50
2023-12-13T16:47:29.997Z,2.50
2023-12-13T16:50:05.632Z,2.50
2023-12-13T16:52:39.641Z,2.60
2023-12-13T16:55:13.505Z,2.50
2023-12-13T16:57:47.064Z,2.50
2023-12-13T17:00:21.627Z,2.50
2023-12-13T17:02:56.781Z,2.50
2023-12-13T17:05:32.429Z,2.40
2023-12-13T17:08:06.512Z,2.40
2023-12-13T17:10:40.139Z,2.30
2023-12-13T17:13:13.790Z,2.30
2023-12-13T17:15:47.561Z,2.40
2023-12-13T17:18:21.362Z,2.40
2023-12-13T17:20:56.526Z,2.40
2023-12-13T17:23:30.150Z,2.50
2023-12-13T17:26:03.940Z,2.50
2023-12-13T17:28:38.707Z,2.50
2023-12-13T17:31:12.565Z,2.50
2023-12-13T17:33:46.285Z,2.50
2023-12-13T17:36:21.329Z,2.50
2023-12-13T17:38:55.043Z,2.50
2023-12-13T17:41:28.661Z,2.60
2023-12-13T17:44:02.343Z,2.50
2023-12-13T17:46:38.983Z,2.50
2023-12-13T17:49:13.769Z,2.50
2023-12-13T17:51:48.968Z,2.40
2023-12-13T17:54:23.174Z,2.50
2023-12-13T17:56:57.277Z,2.40
2023-12-13T17:59:31.030Z,2.40
2023-12-13T18:02:08.169Z,2.50
2023-12-13T18:04:42.851Z,2.50
2023-12-13T18:07:18.029Z,2.50
2023-12-13T18:09:51.941Z,2.50
2023-12-13T18:12:25.674Z,2.50
2023-12-13T18:15:03.062Z,2.50
2023-12-13T18:17:39.044Z,2.50
2023-12-13T18:20:13.502Z,2.50
2023-12-13T18:22:50.748Z,2.60
2023-12-13T18:25:24.744Z,2.50
2023-12-13T18:27:58.498Z,2.50
2023-12-13T18:30:32.535Z,2.50
2023-12-13T18:33:06.339Z,2.40
2023-12-13T18:35:40.061Z,2.40
2023-12-13T18:38:15.927Z,2.40
2023-12-13T18:40:50.074Z,2.40
2023-12-13T18:43:23.985Z,2.40
2023-12-13T18:45:57.793Z,2.50
2023-12-13T18:48:32.430Z,2.40
2023-12-13T18:51:06.748Z,2.50
2023-12-13T18:53:42.296Z,2.50
2023-12-13T18:56:16.184Z,2.40
2023-12-13T18:58:50.055Z,2.40
2023-12-13T19:01:24.150Z,2.40
2023-12-13T19:03:58.539Z,2.40
2023-12-13T19:06:32.758Z,2.40
2023-12-13T19:09:08.394Z,2.40
2023-12-13T19:11:42.870Z,2.40
2023-12-13T19:14:16.833Z,2.40
2023-12-13T19:16:51.034Z,2.40
2023-12-13T19:19:24.869Z,2.40
2023-12-13T19:21:58.856Z,2.50
2023-12-13T19:24:34.150Z,2.50
2023-12-13T19:27:07.822Z,2.50
2023-12-13T19:29:41.896Z,2.50
2023-12-13T19:32:16.077Z,2.50
2023-12-13T19:34:50.044Z,2.50
2023-12-13T19:37:24.104Z,2.50
2023-12-13T19:39:59.456Z,2.50
2023-12-13T19:42:34.613Z,2.50
2023-12-13T19:45:09.268Z,2.50
2023-12-13T19:47:43.072Z,2.40
2023-12-13T19:50:17.078Z,2.40
2023-12-13T19:52:51.500Z,2.40
2023-12-13T19:55:26.797Z,2.40
2023-12-13T19:58:01.957Z,2.40
2023-12-13T20:00:35.983Z,2.40
2023-12-13T20:03:10.311Z,2.40
2023-12-13T20:05:44.801Z,2.50
2023-12-13T20:08:21.967Z,2.50
2023-12-13T20:10:57.700Z,2.50
2023-12-13T20:13:36.388Z,2.50
2023-12-13T20:16:12.936Z,2.50
2023-12-13T20:18:46.967Z,2.50
2023-12-13T20:21:20.726Z,2.50
2023-12-13T20:23:54.862Z,2.50
2023-12-13T20:26:30.258Z,2.50
2023-12-13T20:29:04.628Z,2.50
2023-12-13T20:31:38.409Z,2.50
2023-12-13T20:34:12.574Z,2.50
2023-12-13T20:36:46.447Z,2.50
2023-12-13T20:39:20.444Z,2.50
2023-12-13T20:41:55.828Z,2.40
2023-12-13T20:44:29.683Z,2.40
2023-12-13T20:47:04.479Z,2.40
2023-12-13T20:49:38.731Z,2.40
2023-12-13T20:52:16.826Z,2.50
2023-12-13T20:54:51.205Z,2.50
2023-12-13T20:57:27.680Z,2.40
2023-12-13T21:00:01.627Z,2.50
2023-12-13T21:02:35.485Z,2.40
2023-12-13T21:05:09.790Z,2.40
2023-12-13T21:07:43.494Z,2.50
2023-12-13T21:10:17.220Z,2.50
2023-12-13T21:12:52.281Z,2.50
2023-12-13T21:15:26.080Z,2.50
2023-12-13T21:18:00.110Z,2.50
2023-12-13T21:20:33.788Z,2.50
2023-12-13T21:23:07.407Z,2.50
2023-12-13T21:25:41.100Z,2.50
2023-12-13T21:28:16.334Z,2.50
2023-12-13T21:30:50.164Z,2.40
2023-12-13T21:33:24.017Z,2.40
2023-12-13T21:35:58.018Z,2.40
2023-12-13T21:38:31.697Z,2.50
2023-12-13T21:41:05.788Z,2.50
2023-12-13T21:43:43.323Z,2.50
2023-12-13T21:46:23.370Z,2.50
2023-12-13T21:48:57.106Z,2.50
2023-12-13T21:51:30.855Z,2.60
2023-12-13T21:54:04.448Z,2.50
2023-12-13T21:56:38.812Z,2.50
2023-12-13T21:59:13.944Z,2.40
2023-12-13T22:01:49.820Z,2.40
2023-12-13T22:04:23.447Z,2.40
2023-12-13T22:06:57.804Z,2.40
2023-12-13T22:09:31.369Z,2.50
2023-12-13T22:12:05.362Z,2.50
2023-12-13T22:14:42.846Z,2.50
2023-12-13T22:17:21.797Z,2.50
2023-12-13T22:19:59.059Z,2.50
2023-12-13T22:22:34.592Z,2.50
2023-12-13T22:25:08.912Z,2.50
2023-12-13T22:27:42.489Z,2.50
2023-12-13T22:30:17.903Z,2.50
2023-12-13T22:32:51.613Z,2.50
2023-12-13T22:35:25.356Z,2.50
2023-12-13T22:38:00.951Z,2.50
2023-12-13T22:40:34.578Z,2.50
2023-12-13T22:43:08.721Z,2.50
2023-12-13T22:45:43.868Z,2.50
2023-12-13T22:48:17.509Z,2.50
2023-12-13T22:50:51.337Z,2.50
2023-12-13T22:53:27.334Z,2.50
2023-12-13T22:56:00.914Z,2.50
2023-12-13T22:58:35.049Z,2.50
2023-12-13T23:01:11.072Z,2.50
2023-12-13T23:03:49.207Z,2.50
2023-12-13T23:06:29.377Z,2.50
2023-12-13T23:09:04.655Z,2.50
2023-12-13T23:11:38.243Z,2.50
2023-12-13T23:14:11.888Z,2.50
2023-12-13T23:16:47.320Z,2.50
2023-12-13T23:19:20.899Z,2.50
2023-12-13T23:21:54.458Z,2.60
2023-12-13T23:24:28.079Z,2.50
2023-12-13T23:27:01.717Z,2.50
2023-12-13T23:29:38.178Z,2.50
2023-12-13T23:32:13.184Z,2.50
2023-12-13T23:34:46.935Z,2.50
2023-12-13T23:37:20.556Z,2.50
2023-12-13T23:39:54.117Z,2.50
2023-12-13T23:42:27.697Z,2.40
2023-12-13T23:45:01.776Z,2.40
2023-12-13T23:47:36.736Z,2.40
2023-12-13T23:50:11.212Z,2.40
2023-12-13T23:52:44.895Z,2.40
2023-12-13T23:55:18.526Z,2.40
2023-12-13T23:57:52.154Z,2.40
